AQQ10 IFIS: Internet Flight Information System
logo dgac
Martes 27 de Febrero del 2024

Metar

Buscar por aerodromo o helipuerto
Ingrese nombre de aeródromo, localidad o designador OACI:


METAR del 27-02-2024 a las 23:00 UTC
Para mayor información visite www.meteochile.gob.cl
METAR SCPQ 272300Z AUTO 33006KT 290V360 9999 FEW029 17/11 Q1011
Viento: dirección 330 grados, velocidad 6 nudos
Viento con dirección variable entre 290 y 360 grados
Visibilidad: 10 km o más
Nubes: Escasa nubosidad a 2900 pies sobre el nivel del aeródromo
Temperatura: 17 °C
Rocío: 11 °C
Humedad_relativa: 68%
Presión: 1011 hPa
METAR del 27-02-2024 a las 23:00 UTC
Para mayor información visite www.meteochile.gob.cl
METAR SCIP 272300Z 10009KT 9999 SCT040 25/18 Q1019 NOSIG
Viento: dirección 100 grados, velocidad 9 nudos
Visibilidad: 10 km o más
Nubes: Nubosidad parcial a 4000 pies sobre el nivel del aeródromo
Temperatura: 25 °C
Rocío: 18 °C
Humedad_relativa: 65%
Presión: 1019 hPa
No se esperan cambios significativos en las próximas 2 horas
METAR del 27-02-2024 a las 23:00 UTC
Para mayor información visite www.meteochile.gob.cl
METAR SCDA 272300Z 21014KT CAVOK 22/15 Q1011
Viento: dirección 210 grados, velocidad 14 nudos
Visibilidad: 10 km o más,
    sin nubes bajo los 5.000 pies o bajo del MSA (Mínimo de Seguridad del Aeródromo),
    sin cumulonimbus, y sin fenómenos de tiempo significativo en el aeródromo o alrededores
Temperatura: 22 °C
Rocío: 15 °C
Humedad_relativa: 65%
Presión: 1011 hPa
METAR del 27-02-2024 a las 23:00 UTC
Para mayor información visite www.meteochile.gob.cl
METAR SCTB 272300Z 25004KT CAVOK 26/09 Q////
Viento: dirección 250 grados, velocidad 4 nudos
Visibilidad: 10 km o más,
    sin nubes bajo los 5.000 pies o bajo del MSA (Mínimo de Seguridad del Aeródromo),
    sin cumulonimbus, y sin fenómenos de tiempo significativo en el aeródromo o alrededores
Temperatura: 26 °C
Rocío: 9 °C
Humedad_relativa: 34%
METAR del 27-02-2024 a las 23:00 UTC
Para mayor información visite www.meteochile.gob.cl
METAR SCCF 272300Z 27021KT CAVOK 22/M03 Q1024
Viento: dirección 270 grados, velocidad 21 nudos
Visibilidad: 10 km o más,
    sin nubes bajo los 5.000 pies o bajo del MSA (Mínimo de Seguridad del Aeródromo),
    sin cumulonimbus, y sin fenómenos de tiempo significativo en el aeródromo o alrededores
Temperatura: 22 °C
Rocío: -3 °C
Humedad_relativa: 19%
Presión: 1024 hPa
METAR del 27-02-2024 a las 23:00 UTC
Para mayor información visite www.meteochile.gob.cl
METAR SCIE 272300Z 22010KT CAVOK 18/13 Q1014
Viento: dirección 220 grados, velocidad 10 nudos
Visibilidad: 10 km o más,
    sin nubes bajo los 5.000 pies o bajo del MSA (Mínimo de Seguridad del Aeródromo),
    sin cumulonimbus, y sin fenómenos de tiempo significativo en el aeródromo o alrededores
Temperatura: 18 °C
Rocío: 13 °C
Humedad_relativa: 73%
Presión: 1014 hPa
METAR del 27-02-2024 a las 23:00 UTC
Para mayor información visite www.meteochile.gob.cl
METAR SCVM 272300Z 34007KT 300V360 9999 FEW013 18/14 Q1014
Viento: dirección 340 grados, velocidad 7 nudos
Viento con dirección variable entre 300 y 360 grados
Visibilidad: 10 km o más
Nubes: Escasa nubosidad a 1300 pies sobre el nivel del aeródromo
Temperatura: 18 °C
Rocío: 14 °C
Humedad_relativa: 77%
Presión: 1014 hPa
METAR del 27-02-2024 a las 23:00 UTC
Para mayor información visite www.meteochile.gob.cl
METAR SCEL 272300Z 21016KT CAVOK 25/09 Q1012 NOSIG
Viento: dirección 210 grados, velocidad 16 nudos
Visibilidad: 10 km o más,
    sin nubes bajo los 5.000 pies o bajo del MSA (Mínimo de Seguridad del Aeródromo),
    sin cumulonimbus, y sin fenómenos de tiempo significativo en el aeródromo o alrededores
Temperatura: 25 °C
Rocío: 9 °C
Humedad_relativa: 36%
Presión: 1012 hPa
No se esperan cambios significativos en las próximas 2 horas
METAR del 27-02-2024 a las 23:00 UTC
Para mayor información visite www.meteochile.gob.cl
METAR SCRM 272300Z 36011KT 0100 FZFG VV002 M01/M01 Q0996 TEMPO 1200 SHRA OVC003
Viento: dirección 360 grados, velocidad 11 nudos
Visibilidad: 100 metros
Helada Niebla
Visib_vertical: Cielo oscurecido, : 200 pies de visibilidad vertical
Temperatura: -1 °C
Rocío: -1 °C
Humedad_relativa: 100%
Presión: 996 hPa
Se esperan cambios en forma temporal en:
Visibilidad: 1200 metros
ChubascosLluvia
Nubes: Cubierto a 300 pies sobre el nivel del aeródromo
METAR del 27-02-2024 a las 23:00 UTC
Para mayor información visite www.meteochile.gob.cl
METAR SCPD 272300Z 18014KT CAVOK 27/10 Q1012
Viento: dirección 180 grados, velocidad 14 nudos
Visibilidad: 10 km o más,
    sin nubes bajo los 5.000 pies o bajo del MSA (Mínimo de Seguridad del Aeródromo),
    sin cumulonimbus, y sin fenómenos de tiempo significativo en el aeródromo o alrededores
Temperatura: 27 °C
Rocío: 10 °C
Humedad_relativa: 34%
Presión: 1012 hPa